sensor_id;sensor_type;location;lat;lon;timestamp;P1;durP1;ratioP1;P2;durP2;ratioP2
33190;SDS011;19554;42.652;23.364;2023-05-19T00:01:07;7.18;;;5.90;;
33190;SDS011;19554;42.652;23.364;2023-05-19T00:03:33;8.85;;;5.80;;
33190;SDS011;19554;42.652;23.364;2023-05-19T00:06:04;8.30;;;6.30;;
33190;SDS011;19554;42.652;23.364;2023-05-19T00:08:30;6.47;;;5.60;;
33190;SDS011;19554;42.652;23.364;2023-05-19T00:10:56;7.35;;;5.88;;
33190;SDS011;19554;42.652;23.364;2023-05-19T00:13:22;11.50;;;5.95;;
33190;SDS011;19554;42.652;23.364;2023-05-19T00:15:48;8.10;;;5.72;;
33190;SDS011;19554;42.652;23.364;2023-05-19T00:18:14;10.20;;;6.03;;
33190;SDS011;19554;42.652;23.364;2023-05-19T00:20:41;8.68;;;6.03;;
33190;SDS011;19554;42.652;23.364;2023-05-19T00:23:06;9.00;;;5.72;;
33190;SDS011;19554;42.652;23.364;2023-05-19T00:25:32;8.05;;;6.38;;
33190;SDS011;19554;42.652;23.364;2023-05-19T00:27:57;10.27;;;6.43;;
33190;SDS011;19554;42.652;23.364;2023-05-19T00:30:23;10.88;;;6.93;;
33190;SDS011;19554;42.652;23.364;2023-05-19T00:32:48;11.93;;;7.13;;
33190;SDS011;19554;42.652;23.364;2023-05-19T00:35:14;9.32;;;6.78;;
33190;SDS011;19554;42.652;23.364;2023-05-19T00:37:40;9.70;;;7.32;;
33190;SDS011;19554;42.652;23.364;2023-05-19T00:40:06;10.13;;;7.35;;
33190;SDS011;19554;42.652;23.364;2023-05-19T00:42:32;9.55;;;7.65;;
33190;SDS011;19554;42.652;23.364;2023-05-19T00:44:57;15.73;;;7.60;;
33190;SDS011;19554;42.652;23.364;2023-05-19T00:47:23;9.10;;;7.10;;
33190;SDS011;19554;42.652;23.364;2023-05-19T00:49:49;12.27;;;7.13;;
33190;SDS011;19554;42.652;23.364;2023-05-19T00:52:15;10.02;;;7.05;;
33190;SDS011;19554;42.652;23.364;2023-05-19T00:54:40;11.40;;;7.97;;
33190;SDS011;19554;42.652;23.364;2023-05-19T00:57:07;8.50;;;6.85;;
33190;SDS011;19554;42.652;23.364;2023-05-19T00:59:33;8.52;;;7.47;;
33190;SDS011;19554;42.652;23.364;2023-05-19T01:01:58;9.48;;;7.18;;
33190;SDS011;19554;42.652;23.364;2023-05-19T01:04:26;10.45;;;7.82;;
33190;SDS011;19554;42.652;23.364;2023-05-19T01:06:52;8.70;;;6.85;;
33190;SDS011;19554;42.652;23.364;2023-05-19T01:09:21;9.32;;;6.63;;
33190;SDS011;19554;42.652;23.364;2023-05-19T01:11:48;11.40;;;6.32;;
33190;SDS011;19554;42.652;23.364;2023-05-19T01:14:14;14.48;;;7.00;;
33190;SDS011;19554;42.652;23.364;2023-05-19T01:16:53;9.00;;;7.22;;
33190;SDS011;19554;42.652;23.364;2023-05-19T01:32:50;11.65;;;7.82;;
33190;SDS011;19554;42.652;23.364;2023-05-19T01:35:18;10.55;;;8.43;;
33190;SDS011;19554;42.652;23.364;2023-05-19T01:37:48;12.38;;;8.50;;
33190;SDS011;19554;42.652;23.364;2023-05-19T01:40:15;10.60;;;7.60;;
33190;SDS011;19554;42.652;23.364;2023-05-19T01:42:42;11.45;;;8.35;;
33190;SDS011;19554;42.652;23.364;2023-05-19T01:45:09;12.07;;;8.30;;
33190;SDS011;19554;42.652;23.364;2023-05-19T01:47:38;13.23;;;8.18;;
33190;SDS011;19554;42.652;23.364;2023-05-19T01:50:06;12.25;;;8.50;;
33190;SDS011;19554;42.652;23.364;2023-05-19T01:52:32;11.32;;;8.75;;
33190;SDS011;19554;42.652;23.364;2023-05-19T01:54:57;12.32;;;8.85;;
33190;SDS011;19554;42.652;23.364;2023-05-19T01:57:23;10.70;;;8.68;;
33190;SDS011;19554;42.652;23.364;2023-05-19T02:05:37;12.30;;;9.15;;
33190;SDS011;19554;42.652;23.364;2023-05-19T02:08:44;12.27;;;8.25;;
33190;SDS011;19554;42.652;23.364;2023-05-19T02:11:34;11.85;;;8.07;;
33190;SDS011;19554;42.652;23.364;2023-05-19T02:14:07;11.35;;;8.32;;
33190;SDS011;19554;42.652;23.364;2023-05-19T02:16:40;12.85;;;9.00;;
33190;SDS011;19554;42.652;23.364;2023-05-19T02:19:20;11.50;;;8.30;;
33190;SDS011;19554;42.652;23.364;2023-05-19T02:21:46;23.67;;;9.55;;
33190;SDS011;19554;42.652;23.364;2023-05-19T02:24:12;12.68;;;9.43;;
33190;SDS011;19554;42.652;23.364;2023-05-19T02:26:37;13.32;;;9.57;;
33190;SDS011;19554;42.652;23.364;2023-05-19T02:29:02;12.98;;;10.10;;
33190;SDS011;19554;42.652;23.364;2023-05-19T02:31:28;14.63;;;9.85;;
33190;SDS011;19554;42.652;23.364;2023-05-19T02:33:53;16.42;;;10.50;;
33190;SDS011;19554;42.652;23.364;2023-05-19T02:36:18;14.77;;;10.63;;
33190;SDS011;19554;42.652;23.364;2023-05-19T02:38:44;22.00;;;11.23;;
33190;SDS011;19554;42.652;23.364;2023-05-19T02:41:09;15.65;;;10.98;;
33190;SDS011;19554;42.652;23.364;2023-05-19T02:43:35;14.98;;;10.55;;
33190;SDS011;19554;42.652;23.364;2023-05-19T02:46:00;17.35;;;10.93;;
33190;SDS011;19554;42.652;23.364;2023-05-19T02:48:25;15.13;;;10.95;;
33190;SDS011;19554;42.652;23.364;2023-05-19T02:50:51;18.73;;;11.45;;
33190;SDS011;19554;42.652;23.364;2023-05-19T02:53:16;14.80;;;11.40;;
33190;SDS011;19554;42.652;23.364;2023-05-19T02:55:41;16.75;;;11.43;;
33190;SDS011;19554;42.652;23.364;2023-05-19T02:58:07;16.25;;;11.00;;
33190;SDS011;19554;42.652;23.364;2023-05-19T03:00:32;15.52;;;11.05;;
33190;SDS011;19554;42.652;23.364;2023-05-19T03:02:57;14.45;;;10.93;;
33190;SDS011;19554;42.652;23.364;2023-05-19T03:05:26;14.98;;;10.35;;
33190;SDS011;19554;42.652;23.364;2023-05-19T03:07:53;15.57;;;11.75;;
33190;SDS011;19554;42.652;23.364;2023-05-19T03:10:18;21.40;;;12.18;;
33190;SDS011;19554;42.652;23.364;2023-05-19T03:12:43;16.80;;;11.95;;
33190;SDS011;19554;42.652;23.364;2023-05-19T03:15:09;18.15;;;12.02;;
33190;SDS011;19554;42.652;23.364;2023-05-19T03:17:37;17.23;;;11.32;;
33190;SDS011;19554;42.652;23.364;2023-05-19T03:20:03;17.13;;;12.23;;
33190;SDS011;19554;42.652;23.364;2023-05-19T03:22:29;20.27;;;13.40;;
33190;SDS011;19554;42.652;23.364;2023-05-19T03:24:56;19.40;;;13.80;;
33190;SDS011;19554;42.652;23.364;2023-05-19T03:27:22;20.25;;;13.68;;
33190;SDS011;19554;42.652;23.364;2023-05-19T03:29:48;22.05;;;13.77;;
33190;SDS011;19554;42.652;23.364;2023-05-19T03:32:13;20.25;;;14.48;;
33190;SDS011;19554;42.652;23.364;2023-05-19T03:34:38;22.42;;;13.75;;
33190;SDS011;19554;42.652;23.364;2023-05-19T03:37:04;22.05;;;14.45;;
33190;SDS011;19554;42.652;23.364;2023-05-19T03:39:29;23.45;;;16.40;;
33190;SDS011;19554;42.652;23.364;2023-05-19T03:41:55;20.98;;;13.48;;
33190;SDS011;19554;42.652;23.364;2023-05-19T03:44:20;17.92;;;12.98;;
33190;SDS011;19554;42.652;23.364;2023-05-19T03:46:45;18.98;;;14.52;;
33190;SDS011;19554;42.652;23.364;2023-05-19T03:49:11;18.67;;;13.07;;
33190;SDS011;19554;42.652;23.364;2023-05-19T03:51:37;19.63;;;13.15;;
33190;SDS011;19554;42.652;23.364;2023-05-19T03:54:03;15.23;;;11.88;;
33190;SDS011;19554;42.652;23.364;2023-05-19T03:56:28;16.30;;;12.25;;
33190;SDS011;19554;42.652;23.364;2023-05-19T03:58:54;20.17;;;11.95;;
33190;SDS011;19554;42.652;23.364;2023-05-19T04:01:20;17.98;;;12.38;;
33190;SDS011;19554;42.652;23.364;2023-05-19T04:03:45;17.85;;;12.63;;
33190;SDS011;19554;42.652;23.364;2023-05-19T04:06:11;16.75;;;12.18;;
33190;SDS011;19554;42.652;23.364;2023-05-19T04:08:37;18.55;;;12.77;;
33190;SDS011;19554;42.652;23.364;2023-05-19T04:11:03;16.65;;;12.45;;
33190;SDS011;19554;42.652;23.364;2023-05-19T04:13:29;19.92;;;11.30;;
33190;SDS011;19554;42.652;23.364;2023-05-19T04:15:56;18.02;;;12.57;;
33190;SDS011;19554;42.652;23.364;2023-05-19T04:18:22;15.45;;;11.23;;
33190;SDS011;19554;42.652;23.364;2023-05-19T04:20:47;18.20;;;12.18;;
33190;SDS011;19554;42.652;23.364;2023-05-19T04:23:13;17.95;;;12.25;;
33190;SDS011;19554;42.652;23.364;2023-05-19T04:25:38;14.57;;;11.50;;
33190;SDS011;19554;42.652;23.364;2023-05-19T04:28:04;16.70;;;12.70;;
33190;SDS011;19554;42.652;23.364;2023-05-19T04:30:30;17.27;;;11.43;;
33190;SDS011;19554;42.652;23.364;2023-05-19T04:32:55;17.75;;;12.38;;
33190;SDS011;19554;42.652;23.364;2023-05-19T04:35:22;17.85;;;13.00;;
33190;SDS011;19554;42.652;23.364;2023-05-19T04:37:47;15.70;;;10.52;;
33190;SDS011;19554;42.652;23.364;2023-05-19T04:40:13;16.48;;;10.88;;
33190;SDS011;19554;42.652;23.364;2023-05-19T04:42:39;16.90;;;11.98;;
33190;SDS011;19554;42.652;23.364;2023-05-19T04:45:09;13.73;;;10.27;;
33190;SDS011;19554;42.652;23.364;2023-05-19T04:47:38;16.48;;;10.85;;
33190;SDS011;19554;42.652;23.364;2023-05-19T04:50:04;14.00;;;10.60;;
33190;SDS011;19554;42.652;23.364;2023-05-19T04:52:31;19.15;;;10.90;;
33190;SDS011;19554;42.652;23.364;2023-05-19T04:54:56;16.85;;;12.07;;
33190;SDS011;19554;42.652;23.364;2023-05-19T04:57:22;14.82;;;10.63;;
33190;SDS011;19554;42.652;23.364;2023-05-19T04:59:47;17.25;;;11.10;;
33190;SDS011;19554;42.652;23.364;2023-05-19T05:02:13;15.75;;;10.88;;
33190;SDS011;19554;42.652;23.364;2023-05-19T05:04:39;16.02;;;11.45;;
33190;SDS011;19554;42.652;23.364;2023-05-19T05:07:07;16.50;;;11.55;;
33190;SDS011;19554;42.652;23.364;2023-05-19T05:09:33;16.95;;;11.15;;
33190;SDS011;19554;42.652;23.364;2023-05-19T05:11:58;16.13;;;11.15;;
33190;SDS011;19554;42.652;23.364;2023-05-19T05:14:25;16.30;;;11.00;;
33190;SDS011;19554;42.652;23.364;2023-05-19T05:16:52;13.82;;;10.30;;
33190;SDS011;19554;42.652;23.364;2023-05-19T05:19:17;15.27;;;10.18;;
33190;SDS011;19554;42.652;23.364;2023-05-19T05:21:43;14.98;;;10.90;;
33190;SDS011;19554;42.652;23.364;2023-05-19T05:24:09;14.27;;;10.48;;
33190;SDS011;19554;42.652;23.364;2023-05-19T05:26:35;15.45;;;10.80;;
33190;SDS011;19554;42.652;23.364;2023-05-19T05:29:02;15.52;;;10.15;;
33190;SDS011;19554;42.652;23.364;2023-05-19T05:31:28;13.38;;;10.52;;
33190;SDS011;19554;42.652;23.364;2023-05-19T05:33:53;17.92;;;11.95;;
33190;SDS011;19554;42.652;23.364;2023-05-19T05:36:19;15.82;;;11.52;;
33190;SDS011;19554;42.652;23.364;2023-05-19T05:38:44;15.98;;;10.75;;
33190;SDS011;19554;42.652;23.364;2023-05-19T05:41:10;15.38;;;11.32;;
33190;SDS011;19554;42.652;23.364;2023-05-19T05:43:35;13.32;;;10.02;;
33190;SDS011;19554;42.652;23.364;2023-05-19T05:46:00;15.02;;;10.32;;
33190;SDS011;19554;42.652;23.364;2023-05-19T05:48:26;13.80;;;10.48;;
33190;SDS011;19554;42.652;23.364;2023-05-19T05:50:52;13.25;;;10.35;;
33190;SDS011;19554;42.652;23.364;2023-05-19T05:53:18;16.23;;;10.57;;
33190;SDS011;19554;42.652;23.364;2023-05-19T05:55:45;18.70;;;10.25;;
33190;SDS011;19554;42.652;23.364;2023-05-19T05:58:11;13.00;;;9.32;;
33190;SDS011;19554;42.652;23.364;2023-05-19T06:00:38;13.57;;;8.95;;
33190;SDS011;19554;42.652;23.364;2023-05-19T06:03:07;15.38;;;9.48;;
33190;SDS011;19554;42.652;23.364;2023-05-19T06:05:33;19.52;;;9.13;;
33190;SDS011;19554;42.652;23.364;2023-05-19T06:07:59;14.30;;;9.52;;
33190;SDS011;19554;42.652;23.364;2023-05-19T06:10:24;11.90;;;8.10;;
33190;SDS011;19554;42.652;23.364;2023-05-19T06:12:50;16.95;;;9.50;;
33190;SDS011;19554;42.652;23.364;2023-05-19T06:15:15;13.55;;;9.48;;
33190;SDS011;19554;42.652;23.364;2023-05-19T06:17:41;19.83;;;10.95;;
33190;SDS011;19554;42.652;23.364;2023-05-19T06:20:06;17.73;;;9.93;;
33190;SDS011;19554;42.652;23.364;2023-05-19T06:22:34;15.95;;;9.13;;
33190;SDS011;19554;42.652;23.364;2023-05-19T06:24:59;18.85;;;9.73;;
33190;SDS011;19554;42.652;23.364;2023-05-19T06:27:25;14.88;;;9.60;;
33190;SDS011;19554;42.652;23.364;2023-05-19T06:29:50;14.32;;;9.18;;
33190;SDS011;19554;42.652;23.364;2023-05-19T06:32:15;12.43;;;8.63;;
33190;SDS011;19554;42.652;23.364;2023-05-19T06:34:41;13.95;;;8.35;;
33190;SDS011;19554;42.652;23.364;2023-05-19T06:37:06;13.57;;;8.57;;
33190;SDS011;19554;42.652;23.364;2023-05-19T06:39:32;17.77;;;9.20;;
33190;SDS011;19554;42.652;23.364;2023-05-19T06:41:57;14.73;;;8.70;;
33190;SDS011;19554;42.652;23.364;2023-05-19T06:44:23;8.88;;;7.03;;
33190;SDS011;19554;42.652;23.364;2023-05-19T06:46:48;11.32;;;6.85;;
33190;SDS011;19554;42.652;23.364;2023-05-19T06:49:13;12.85;;;6.75;;
33190;SDS011;19554;42.652;23.364;2023-05-19T06:51:39;8.05;;;6.20;;
33190;SDS011;19554;42.652;23.364;2023-05-19T06:54:05;9.80;;;7.20;;
33190;SDS011;19554;42.652;23.364;2023-05-19T06:56:30;10.18;;;7.68;;
33190;SDS011;19554;42.652;23.364;2023-05-19T06:58:56;10.23;;;6.28;;
33190;SDS011;19554;42.652;23.364;2023-05-19T07:01:21;7.47;;;5.53;;
33190;SDS011;19554;42.652;23.364;2023-05-19T07:03:46;9.45;;;7.10;;
33190;SDS011;19554;42.652;23.364;2023-05-19T07:06:12;12.23;;;7.05;;
33190;SDS011;19554;42.652;23.364;2023-05-19T07:08:37;8.65;;;6.47;;
33190;SDS011;19554;42.652;23.364;2023-05-19T07:11:03;9.98;;;7.35;;
33190;SDS011;19554;42.652;23.364;2023-05-19T07:13:28;8.52;;;7.60;;
33190;SDS011;19554;42.652;23.364;2023-05-19T07:15:54;8.70;;;7.28;;
33190;SDS011;19554;42.652;23.364;2023-05-19T07:18:22;10.95;;;7.40;;
33190;SDS011;19554;42.652;23.364;2023-05-19T07:20:47;11.23;;;7.35;;
33190;SDS011;19554;42.652;23.364;2023-05-19T07:23:13;17.35;;;9.45;;
33190;SDS011;19554;42.652;23.364;2023-05-19T07:25:38;13.40;;;9.80;;
33190;SDS011;19554;42.652;23.364;2023-05-19T07:28:03;20.25;;;7.22;;
33190;SDS011;19554;42.652;23.364;2023-05-19T07:30:29;11.32;;;7.28;;
33190;SDS011;19554;42.652;23.364;2023-05-19T07:32:54;9.75;;;7.80;;
33190;SDS011;19554;42.652;23.364;2023-05-19T07:35:20;12.70;;;7.88;;
33190;SDS011;19554;42.652;23.364;2023-05-19T07:37:50;10.98;;;7.90;;
33190;SDS011;19554;42.652;23.364;2023-05-19T07:40:16;10.90;;;8.38;;
33190;SDS011;19554;42.652;23.364;2023-05-19T07:42:42;14.70;;;8.25;;
33190;SDS011;19554;42.652;23.364;2023-05-19T07:45:08;10.82;;;7.40;;
33190;SDS011;19554;42.652;23.364;2023-05-19T07:47:34;10.65;;;7.63;;
33190;SDS011;19554;42.652;23.364;2023-05-19T07:50:00;14.30;;;8.52;;
33190;SDS011;19554;42.652;23.364;2023-05-19T07:52:25;12.18;;;8.63;;
33190;SDS011;19554;42.652;23.364;2023-05-19T07:54:50;29.50;;;9.77;;
33190;SDS011;19554;42.652;23.364;2023-05-19T07:57:17;23.08;;;8.98;;
33190;SDS011;19554;42.652;23.364;2023-05-19T07:59:43;20.10;;;8.65;;
33190;SDS011;19554;42.652;23.364;2023-05-19T08:02:08;117.82;;;16.33;;
33190;SDS011;19554;42.652;23.364;2023-05-19T08:04:33;151.25;;;21.58;;
33190;SDS011;19554;42.652;23.364;2023-05-19T08:06:59;22.63;;;9.90;;
33190;SDS011;19554;42.652;23.364;2023-05-19T08:09:24;167.43;;;20.00;;
33190;SDS011;19554;42.652;23.364;2023-05-19T08:11:50;11.82;;;8.07;;
33190;SDS011;19554;42.652;23.364;2023-05-19T08:14:15;12.88;;;8.73;;
33190;SDS011;19554;42.652;23.364;2023-05-19T08:16:41;11.52;;;8.10;;
33190;SDS011;19554;42.652;23.364;2023-05-19T08:19:07;14.80;;;8.73;;
33190;SDS011;19554;42.652;23.364;2023-05-19T08:21:33;62.55;;;12.63;;
33190;SDS011;19554;42.652;23.364;2023-05-19T08:24:02;15.60;;;8.68;;
33190;SDS011;19554;42.652;23.364;2023-05-19T08:26:28;13.88;;;9.45;;
33190;SDS011;19554;42.652;23.364;2023-05-19T08:28:53;13.07;;;8.52;;
33190;SDS011;19554;42.652;23.364;2023-05-19T08:31:19;12.55;;;9.52;;
33190;SDS011;19554;42.652;23.364;2023-05-19T08:33:44;14.27;;;9.73;;
33190;SDS011;19554;42.652;23.364;2023-05-19T08:36:10;16.95;;;9.68;;
33190;SDS011;19554;42.652;23.364;2023-05-19T08:38:35;14.40;;;9.73;;
33190;SDS011;19554;42.652;23.364;2023-05-19T08:41:01;14.80;;;9.73;;
33190;SDS011;19554;42.652;23.364;2023-05-19T08:43:26;14.32;;;9.45;;
33190;SDS011;19554;42.652;23.364;2023-05-19T08:45:52;14.85;;;9.85;;
33190;SDS011;19554;42.652;23.364;2023-05-19T08:48:19;16.75;;;11.75;;
33190;SDS011;19554;42.652;23.364;2023-05-19T08:50:50;16.88;;;10.27;;
33190;SDS011;19554;42.652;23.364;2023-05-19T08:53:26;16.65;;;9.10;;
33190;SDS011;19554;42.652;23.364;2023-05-19T08:56:07;18.88;;;10.30;;
33190;SDS011;19554;42.652;23.364;2023-05-19T08:58:47;59.63;;;13.65;;
33190;SDS011;19554;42.652;23.364;2023-05-19T09:01:14;17.95;;;10.60;;
33190;SDS011;19554;42.652;23.364;2023-05-19T09:03:40;13.50;;;9.80;;
33190;SDS011;19554;42.652;23.364;2023-05-19T09:06:07;69.13;;;14.82;;
33190;SDS011;19554;42.652;23.364;2023-05-19T09:08:36;18.52;;;10.80;;
33190;SDS011;19554;42.652;23.364;2023-05-19T09:11:02;34.55;;;11.95;;
33190;SDS011;19554;42.652;23.364;2023-05-19T09:13:28;16.85;;;10.88;;
33190;SDS011;19554;42.652;23.364;2023-05-19T09:15:54;30.08;;;11.38;;
33190;SDS011;19554;42.652;23.364;2023-05-19T09:18:22;17.05;;;9.90;;
33190;SDS011;19554;42.652;23.364;2023-05-19T09:20:49;18.67;;;11.10;;
33190;SDS011;19554;42.652;23.364;2023-05-19T09:23:15;21.13;;;10.30;;
33190;SDS011;19554;42.652;23.364;2023-05-19T09:25:48;24.33;;;11.80;;
33190;SDS011;19554;42.652;23.364;2023-05-19T09:28:21;18.33;;;10.10;;
33190;SDS011;19554;42.652;23.364;2023-05-19T09:30:58;19.73;;;10.75;;
33190;SDS011;19554;42.652;23.364;2023-05-19T09:33:37;18.63;;;11.93;;
33190;SDS011;19554;42.652;23.364;2023-05-19T09:38:36;18.75;;;10.95;;
33190;SDS011;19554;42.652;23.364;2023-05-19T09:41:03;17.38;;;11.10;;
33190;SDS011;19554;42.652;23.364;2023-05-19T09:43:30;18.23;;;11.65;;
33190;SDS011;19554;42.652;23.364;2023-05-19T09:48:27;20.10;;;12.18;;
33190;SDS011;19554;42.652;23.364;2023-05-19T09:50:53;17.42;;;11.10;;
33190;SDS011;19554;42.652;23.364;2023-05-19T09:53:19;20.45;;;11.68;;
33190;SDS011;19554;42.652;23.364;2023-05-19T09:55:46;15.60;;;11.20;;
33190;SDS011;19554;42.652;23.364;2023-05-19T09:58:16;16.92;;;11.15;;
33190;SDS011;19554;42.652;23.364;2023-05-19T10:00:43;19.52;;;11.00;;
33190;SDS011;19554;42.652;23.364;2023-05-19T10:03:09;21.13;;;11.02;;
33190;SDS011;19554;42.652;23.364;2023-05-19T10:05:35;20.05;;;11.18;;
33190;SDS011;19554;42.652;23.364;2023-05-19T10:08:02;17.30;;;10.85;;
33190;SDS011;19554;42.652;23.364;2023-05-19T10:10:31;18.63;;;10.55;;
33190;SDS011;19554;42.652;23.364;2023-05-19T10:12:58;22.55;;;10.93;;
33190;SDS011;19554;42.652;23.364;2023-05-19T10:15:24;16.35;;;11.13;;
33190;SDS011;19554;42.652;23.364;2023-05-19T10:17:50;16.10;;;10.25;;
33190;SDS011;19554;42.652;23.364;2023-05-19T10:20:16;16.00;;;10.90;;
33190;SDS011;19554;42.652;23.364;2023-05-19T10:22:42;17.15;;;10.43;;
33190;SDS011;19554;42.652;23.364;2023-05-19T10:25:10;19.20;;;10.68;;
33190;SDS011;19554;42.652;23.364;2023-05-19T10:27:43;16.85;;;10.65;;
33190;SDS011;19554;42.652;23.364;2023-05-19T10:30:21;18.42;;;10.10;;
33190;SDS011;19554;42.652;23.364;2023-05-19T10:32:55;15.90;;;10.75;;
33190;SDS011;19554;42.652;23.364;2023-05-19T10:35:31;18.75;;;10.75;;
33190;SDS011;19554;42.652;23.364;2023-05-19T10:38:13;15.85;;;10.27;;
33190;SDS011;19554;42.652;23.364;2023-05-19T10:40:52;18.95;;;10.35;;
33190;SDS011;19554;42.652;23.364;2023-05-19T10:43:30;17.40;;;10.43;;
33190;SDS011;19554;42.652;23.364;2023-05-19T10:45:57;15.50;;;10.73;;
33190;SDS011;19554;42.652;23.364;2023-05-19T10:48:23;16.00;;;11.00;;
33190;SDS011;19554;42.652;23.364;2023-05-19T10:50:52;14.48;;;10.27;;
33190;SDS011;19554;42.652;23.364;2023-05-19T10:53:19;15.48;;;9.82;;
33190;SDS011;19554;42.652;23.364;2023-05-19T10:55:53;15.05;;;10.38;;
33190;SDS011;19554;42.652;23.364;2023-05-19T10:58:38;17.50;;;10.23;;
33190;SDS011;19554;42.652;23.364;2023-05-19T11:01:13;14.77;;;10.23;;
33190;SDS011;19554;42.652;23.364;2023-05-19T11:06:26;11.75;;;9.27;;
33190;SDS011;19554;42.652;23.364;2023-05-19T11:09:01;13.70;;;9.63;;
33190;SDS011;19554;42.652;23.364;2023-05-19T11:11:53;13.20;;;9.00;;
33190;SDS011;19554;42.652;23.364;2023-05-19T11:14:19;15.05;;;9.63;;
33190;SDS011;19554;42.652;23.364;2023-05-19T11:16:48;15.98;;;9.65;;
33190;SDS011;19554;42.652;23.364;2023-05-19T11:19:18;16.30;;;9.55;;
33190;SDS011;19554;42.652;23.364;2023-05-19T11:21:47;16.17;;;9.50;;
33190;SDS011;19554;42.652;23.364;2023-05-19T11:24:34;17.08;;;9.55;;
33190;SDS011;19554;42.652;23.364;2023-05-19T11:30:16;17.70;;;9.93;;
33190;SDS011;19554;42.652;23.364;2023-05-19T11:32:44;16.63;;;9.77;;
33190;SDS011;19554;42.652;23.364;2023-05-19T11:35:11;14.75;;;9.68;;
33190;SDS011;19554;42.652;23.364;2023-05-19T11:37:38;13.50;;;9.77;;
33190;SDS011;19554;42.652;23.364;2023-05-19T11:40:05;17.60;;;9.38;;
33190;SDS011;19554;42.652;23.364;2023-05-19T11:42:31;17.33;;;10.45;;
33190;SDS011;19554;42.652;23.364;2023-05-19T11:44:59;23.05;;;12.30;;
33190;SDS011;19554;42.652;23.364;2023-05-19T11:47:24;17.20;;;11.43;;
33190;SDS011;19554;42.652;23.364;2023-05-19T11:49:52;17.73;;;10.85;;
33190;SDS011;19554;42.652;23.364;2023-05-19T11:52:25;24.02;;;12.02;;
33190;SDS011;19554;42.652;23.364;2023-05-19T11:54:54;21.17;;;13.93;;
33190;SDS011;19554;42.652;23.364;2023-05-19T11:57:20;16.50;;;11.13;;
33190;SDS011;19554;42.652;23.364;2023-05-19T11:59:46;21.30;;;13.40;;
33190;SDS011;19554;42.652;23.364;2023-05-19T12:04:40;19.45;;;11.93;;
33190;SDS011;19554;42.652;23.364;2023-05-19T12:07:05;16.70;;;10.13;;
33190;SDS011;19554;42.652;23.364;2023-05-19T12:09:31;17.80;;;9.73;;
33190;SDS011;19554;42.652;23.364;2023-05-19T12:11:56;11.57;;;8.55;;
33190;SDS011;19554;42.652;23.364;2023-05-19T12:14:22;16.38;;;8.57;;
33190;SDS011;19554;42.652;23.364;2023-05-19T12:16:49;16.00;;;8.95;;
33190;SDS011;19554;42.652;23.364;2023-05-19T12:19:15;13.35;;;8.32;;
33190;SDS011;19554;42.652;23.364;2023-05-19T12:21:40;14.55;;;9.43;;
33190;SDS011;19554;42.652;23.364;2023-05-19T12:24:06;14.20;;;9.13;;
33190;SDS011;19554;42.652;23.364;2023-05-19T12:26:33;15.02;;;8.30;;
33190;SDS011;19554;42.652;23.364;2023-05-19T12:28:59;14.02;;;8.55;;
33190;SDS011;19554;42.652;23.364;2023-05-19T12:31:25;12.52;;;8.38;;
33190;SDS011;19554;42.652;23.364;2023-05-19T12:33:50;14.05;;;8.48;;
33190;SDS011;19554;42.652;23.364;2023-05-19T12:36:16;13.10;;;8.73;;
33190;SDS011;19554;42.652;23.364;2023-05-19T12:38:42;12.00;;;9.07;;
33190;SDS011;19554;42.652;23.364;2023-05-19T12:41:09;11.93;;;8.15;;
33190;SDS011;19554;42.652;23.364;2023-05-19T12:43:36;13.85;;;9.35;;
33190;SDS011;19554;42.652;23.364;2023-05-19T12:46:11;16.33;;;9.02;;
33190;SDS011;19554;42.652;23.364;2023-05-19T12:48:41;13.35;;;9.73;;
33190;SDS011;19554;42.652;23.364;2023-05-19T12:53:33;12.32;;;8.20;;
33190;SDS011;19554;42.652;23.364;2023-05-19T12:56:00;9.73;;;7.68;;
33190;SDS011;19554;42.652;23.364;2023-05-19T12:58:25;10.15;;;7.50;;
33190;SDS011;19554;42.652;23.364;2023-05-19T13:00:51;13.25;;;7.82;;
33190;SDS011;19554;42.652;23.364;2023-05-19T13:03:23;11.20;;;6.22;;
33190;SDS011;19554;42.652;23.364;2023-05-19T13:05:49;8.10;;;6.35;;
33190;SDS011;19554;42.652;23.364;2023-05-19T13:08:16;8.98;;;6.22;;
33190;SDS011;19554;42.652;23.364;2023-05-19T13:10:45;11.05;;;6.53;;
33190;SDS011;19554;42.652;23.364;2023-05-19T13:13:11;11.82;;;7.00;;
33190;SDS011;19554;42.652;23.364;2023-05-19T13:15:39;10.20;;;6.25;;
33190;SDS011;19554;42.652;23.364;2023-05-19T13:18:06;7.60;;;6.03;;
33190;SDS011;19554;42.652;23.364;2023-05-19T13:20:33;9.43;;;6.20;;
33190;SDS011;19554;42.652;23.364;2023-05-19T13:22:59;12.15;;;6.43;;
33190;SDS011;19554;42.652;23.364;2023-05-19T13:25:25;9.00;;;6.65;;
33190;SDS011;19554;42.652;23.364;2023-05-19T13:27:51;11.98;;;7.05;;
33190;SDS011;19554;42.652;23.364;2023-05-19T13:30:17;10.55;;;6.40;;
33190;SDS011;19554;42.652;23.364;2023-05-19T13:32:43;9.40;;;7.18;;
33190;SDS011;19554;42.652;23.364;2023-05-19T13:35:09;12.38;;;7.15;;
33190;SDS011;19554;42.652;23.364;2023-05-19T13:37:35;13.55;;;7.65;;
33190;SDS011;19554;42.652;23.364;2023-05-19T13:40:01;13.77;;;6.93;;
33190;SDS011;19554;42.652;23.364;2023-05-19T13:42:27;11.70;;;7.47;;
33190;SDS011;19554;42.652;23.364;2023-05-19T13:44:53;15.32;;;7.47;;
33190;SDS011;19554;42.652;23.364;2023-05-19T13:47:20;16.75;;;8.13;;
33190;SDS011;19554;42.652;23.364;2023-05-19T13:49:47;13.35;;;7.65;;
33190;SDS011;19554;42.652;23.364;2023-05-19T13:52:12;11.50;;;7.90;;
33190;SDS011;19554;42.652;23.364;2023-05-19T13:54:38;10.85;;;7.78;;
33190;SDS011;19554;42.652;23.364;2023-05-19T13:57:04;12.15;;;7.85;;
33190;SDS011;19554;42.652;23.364;2023-05-19T13:59:30;10.65;;;7.53;;
33190;SDS011;19554;42.652;23.364;2023-05-19T14:01:55;11.73;;;8.45;;
33190;SDS011;19554;42.652;23.364;2023-05-19T14:04:21;13.38;;;8.35;;
33190;SDS011;19554;42.652;23.364;2023-05-19T14:06:47;10.60;;;8.25;;
33190;SDS011;19554;42.652;23.364;2023-05-19T14:09:13;12.77;;;8.15;;
33190;SDS011;19554;42.652;23.364;2023-05-19T14:11:38;13.02;;;8.23;;
33190;SDS011;19554;42.652;23.364;2023-05-19T14:14:04;12.18;;;8.50;;
33190;SDS011;19554;42.652;23.364;2023-05-19T14:16:29;14.80;;;8.23;;
33190;SDS011;19554;42.652;23.364;2023-05-19T14:18:55;12.20;;;8.43;;
33190;SDS011;19554;42.652;23.364;2023-05-19T14:21:21;13.93;;;8.30;;
33190;SDS011;19554;42.652;23.364;2023-05-19T14:23:47;14.52;;;8.73;;
33190;SDS011;19554;42.652;23.364;2023-05-19T14:26:12;15.52;;;8.13;;
33190;SDS011;19554;42.652;23.364;2023-05-19T14:28:37;14.38;;;8.13;;
33190;SDS011;19554;42.652;23.364;2023-05-19T14:31:03;10.85;;;7.55;;
33190;SDS011;19554;42.652;23.364;2023-05-19T14:33:28;13.32;;;7.13;;
33190;SDS011;19554;42.652;23.364;2023-05-19T14:35:54;13.23;;;7.60;;
33190;SDS011;19554;42.652;23.364;2023-05-19T14:38:20;11.57;;;6.43;;
33190;SDS011;19554;42.652;23.364;2023-05-19T14:40:45;14.52;;;8.23;;
33190;SDS011;19554;42.652;23.364;2023-05-19T14:43:12;12.60;;;8.15;;
33190;SDS011;19554;42.652;23.364;2023-05-19T14:45:37;13.20;;;7.85;;
33190;SDS011;19554;42.652;23.364;2023-05-19T14:48:03;9.98;;;8.15;;
33190;SDS011;19554;42.652;23.364;2023-05-19T14:50:29;12.82;;;7.70;;
33190;SDS011;19554;42.652;23.364;2023-05-19T14:52:55;10.43;;;7.82;;